sensor_id;sensor_type;location;lat;lon;timestamp;P1;durP1;ratioP1;P2;durP2;ratioP2
10074;SDS011;5076;42.680;23.288;2022-10-16T00:00:23;6.20;;;5.20;;
10074;SDS011;5076;42.680;23.288;2022-10-16T00:02:50;7.83;;;5.60;;
10074;SDS011;5076;42.680;23.288;2022-10-16T00:05:18;10.40;;;6.27;;
10074;SDS011;5076;42.680;23.288;2022-10-16T00:07:44;7.60;;;6.23;;
10074;SDS011;5076;42.680;23.288;2022-10-16T00:10:11;8.23;;;6.20;;
10074;SDS011;5076;42.680;23.288;2022-10-16T00:12:37;7.17;;;5.70;;
10074;SDS011;5076;42.680;23.288;2022-10-16T00:15:04;9.37;;;6.30;;
10074;SDS011;5076;42.680;23.288;2022-10-16T00:17:31;7.00;;;6.20;;
10074;SDS011;5076;42.680;23.288;2022-10-16T00:19:58;8.63;;;6.33;;
10074;SDS011;5076;42.680;23.288;2022-10-16T00:22:25;8.97;;;6.30;;
10074;SDS011;5076;42.680;23.288;2022-10-16T00:24:52;8.33;;;5.97;;
10074;SDS011;5076;42.680;23.288;2022-10-16T00:27:19;9.37;;;6.63;;
10074;SDS011;5076;42.680;23.288;2022-10-16T00:29:48;6.90;;;6.20;;
10074;SDS011;5076;42.680;23.288;2022-10-16T00:32:15;7.57;;;6.00;;
10074;SDS011;5076;42.680;23.288;2022-10-16T00:34:42;8.50;;;6.90;;
10074;SDS011;5076;42.680;23.288;2022-10-16T00:37:08;8.40;;;6.03;;
10074;SDS011;5076;42.680;23.288;2022-10-16T00:39:36;9.00;;;6.17;;
10074;SDS011;5076;42.680;23.288;2022-10-16T00:42:03;7.73;;;5.80;;
10074;SDS011;5076;42.680;23.288;2022-10-16T00:44:43;7.77;;;5.63;;
10074;SDS011;5076;42.680;23.288;2022-10-16T00:47:11;5.93;;;5.30;;
10074;SDS011;5076;42.680;23.288;2022-10-16T00:49:39;8.73;;;5.83;;
10074;SDS011;5076;42.680;23.288;2022-10-16T00:52:05;7.67;;;5.70;;
10074;SDS011;5076;42.680;23.288;2022-10-16T00:54:32;7.87;;;5.83;;
10074;SDS011;5076;42.680;23.288;2022-10-16T00:57:01;8.90;;;5.90;;
10074;SDS011;5076;42.680;23.288;2022-10-16T00:59:29;7.10;;;5.87;;
10074;SDS011;5076;42.680;23.288;2022-10-16T01:01:56;6.43;;;5.60;;
10074;SDS011;5076;42.680;23.288;2022-10-16T01:04:23;8.93;;;5.63;;
10074;SDS011;5076;42.680;23.288;2022-10-16T01:06:51;9.20;;;6.40;;
10074;SDS011;5076;42.680;23.288;2022-10-16T01:09:20;7.83;;;5.87;;
10074;SDS011;5076;42.680;23.288;2022-10-16T01:11:52;10.07;;;6.17;;
10074;SDS011;5076;42.680;23.288;2022-10-16T01:14:24;10.73;;;6.00;;
10074;SDS011;5076;42.680;23.288;2022-10-16T01:16:53;12.20;;;6.37;;
10074;SDS011;5076;42.680;23.288;2022-10-16T01:19:25;7.67;;;6.13;;
10074;SDS011;5076;42.680;23.288;2022-10-16T01:21:52;10.47;;;7.07;;
10074;SDS011;5076;42.680;23.288;2022-10-16T01:24:22;11.17;;;7.00;;
10074;SDS011;5076;42.680;23.288;2022-10-16T01:27:03;8.00;;;6.53;;
10074;SDS011;5076;42.680;23.288;2022-10-16T01:29:32;9.67;;;6.67;;
10074;SDS011;5076;42.680;23.288;2022-10-16T01:32:04;7.47;;;6.60;;
10074;SDS011;5076;42.680;23.288;2022-10-16T01:34:33;8.70;;;6.87;;
10074;SDS011;5076;42.680;23.288;2022-10-16T01:37:02;8.30;;;6.73;;
10074;SDS011;5076;42.680;23.288;2022-10-16T01:39:31;8.00;;;7.00;;
10074;SDS011;5076;42.680;23.288;2022-10-16T01:42:00;12.53;;;6.80;;
10074;SDS011;5076;42.680;23.288;2022-10-16T01:44:29;8.37;;;6.93;;
10074;SDS011;5076;42.680;23.288;2022-10-16T01:46:57;10.03;;;6.77;;
10074;SDS011;5076;42.680;23.288;2022-10-16T01:49:25;9.37;;;6.87;;
10074;SDS011;5076;42.680;23.288;2022-10-16T01:51:53;10.40;;;7.00;;
10074;SDS011;5076;42.680;23.288;2022-10-16T01:54:21;10.67;;;6.90;;
10074;SDS011;5076;42.680;23.288;2022-10-16T01:56:49;13.53;;;7.13;;
10074;SDS011;5076;42.680;23.288;2022-10-16T01:59:17;11.53;;;7.07;;
10074;SDS011;5076;42.680;23.288;2022-10-16T02:01:47;12.33;;;6.30;;
10074;SDS011;5076;42.680;23.288;2022-10-16T02:04:15;9.77;;;6.70;;
10074;SDS011;5076;42.680;23.288;2022-10-16T02:06:44;9.37;;;6.10;;
10074;SDS011;5076;42.680;23.288;2022-10-16T02:09:10;7.30;;;6.07;;
10074;SDS011;5076;42.680;23.288;2022-10-16T02:11:37;8.03;;;6.03;;
10074;SDS011;5076;42.680;23.288;2022-10-16T02:14:04;7.50;;;5.73;;
10074;SDS011;5076;42.680;23.288;2022-10-16T02:16:35;10.67;;;5.63;;
10074;SDS011;5076;42.680;23.288;2022-10-16T02:19:03;8.80;;;6.37;;
10074;SDS011;5076;42.680;23.288;2022-10-16T02:21:32;8.13;;;5.77;;
10074;SDS011;5076;42.680;23.288;2022-10-16T02:24:00;7.27;;;5.60;;
10074;SDS011;5076;42.680;23.288;2022-10-16T02:26:30;6.83;;;5.47;;
10074;SDS011;5076;42.680;23.288;2022-10-16T02:29:00;6.27;;;5.27;;
10074;SDS011;5076;42.680;23.288;2022-10-16T02:31:31;8.57;;;5.43;;
10074;SDS011;5076;42.680;23.288;2022-10-16T02:33:59;6.77;;;5.43;;
10074;SDS011;5076;42.680;23.288;2022-10-16T02:36:27;7.63;;;6.10;;
10074;SDS011;5076;42.680;23.288;2022-10-16T02:38:54;5.93;;;5.13;;
10074;SDS011;5076;42.680;23.288;2022-10-16T02:41:21;8.37;;;6.03;;
10074;SDS011;5076;42.680;23.288;2022-10-16T02:43:47;7.33;;;6.20;;
10074;SDS011;5076;42.680;23.288;2022-10-16T02:46:15;7.43;;;6.33;;
10074;SDS011;5076;42.680;23.288;2022-10-16T02:48:41;7.17;;;6.13;;
10074;SDS011;5076;42.680;23.288;2022-10-16T02:51:08;8.43;;;6.00;;
10074;SDS011;5076;42.680;23.288;2022-10-16T02:53:36;7.07;;;6.37;;
10074;SDS011;5076;42.680;23.288;2022-10-16T02:56:03;8.97;;;6.57;;
10074;SDS011;5076;42.680;23.288;2022-10-16T02:58:29;13.40;;;7.07;;
10074;SDS011;5076;42.680;23.288;2022-10-16T03:00:56;9.27;;;6.40;;
10074;SDS011;5076;42.680;23.288;2022-10-16T03:03:22;11.23;;;8.93;;
10074;SDS011;5076;42.680;23.288;2022-10-16T03:05:49;18.23;;;10.67;;
10074;SDS011;5076;42.680;23.288;2022-10-16T03:08:15;12.33;;;9.10;;
10074;SDS011;5076;42.680;23.288;2022-10-16T03:10:43;16.57;;;9.23;;
10074;SDS011;5076;42.680;23.288;2022-10-16T03:13:10;11.27;;;7.97;;
10074;SDS011;5076;42.680;23.288;2022-10-16T03:15:36;9.93;;;7.73;;
10074;SDS011;5076;42.680;23.288;2022-10-16T03:18:03;9.50;;;7.40;;
10074;SDS011;5076;42.680;23.288;2022-10-16T03:20:29;12.53;;;7.47;;
10074;SDS011;5076;42.680;23.288;2022-10-16T03:22:56;12.53;;;6.90;;
10074;SDS011;5076;42.680;23.288;2022-10-16T03:25:22;10.87;;;6.97;;
10074;SDS011;5076;42.680;23.288;2022-10-16T03:27:50;10.37;;;7.47;;
10074;SDS011;5076;42.680;23.288;2022-10-16T03:30:17;10.13;;;7.77;;
10074;SDS011;5076;42.680;23.288;2022-10-16T03:32:44;9.50;;;6.80;;
10074;SDS011;5076;42.680;23.288;2022-10-16T03:35:10;10.87;;;7.60;;
10074;SDS011;5076;42.680;23.288;2022-10-16T03:37:37;11.90;;;8.13;;
10074;SDS011;5076;42.680;23.288;2022-10-16T03:40:04;13.33;;;7.77;;
10074;SDS011;5076;42.680;23.288;2022-10-16T03:42:31;9.57;;;7.50;;
10074;SDS011;5076;42.680;23.288;2022-10-16T03:44:58;11.47;;;7.30;;
10074;SDS011;5076;42.680;23.288;2022-10-16T03:47:25;9.70;;;7.53;;
10074;SDS011;5076;42.680;23.288;2022-10-16T03:49:51;9.80;;;7.43;;
10074;SDS011;5076;42.680;23.288;2022-10-16T03:52:18;8.87;;;7.47;;
10074;SDS011;5076;42.680;23.288;2022-10-16T03:54:44;11.60;;;8.20;;
10074;SDS011;5076;42.680;23.288;2022-10-16T03:57:11;10.30;;;6.80;;
10074;SDS011;5076;42.680;23.288;2022-10-16T03:59:37;10.23;;;7.60;;
10074;SDS011;5076;42.680;23.288;2022-10-16T04:02:05;11.50;;;7.93;;
10074;SDS011;5076;42.680;23.288;2022-10-16T04:04:32;12.37;;;8.00;;
10074;SDS011;5076;42.680;23.288;2022-10-16T04:06:58;9.67;;;7.53;;
10074;SDS011;5076;42.680;23.288;2022-10-16T04:09:25;9.20;;;7.23;;
10074;SDS011;5076;42.680;23.288;2022-10-16T04:11:51;8.50;;;6.50;;
10074;SDS011;5076;42.680;23.288;2022-10-16T04:14:18;8.27;;;6.30;;
10074;SDS011;5076;42.680;23.288;2022-10-16T04:16:44;8.70;;;6.07;;
10074;SDS011;5076;42.680;23.288;2022-10-16T04:19:12;8.27;;;6.43;;
10074;SDS011;5076;42.680;23.288;2022-10-16T04:21:39;8.13;;;6.97;;
10074;SDS011;5076;42.680;23.288;2022-10-16T04:24:05;10.20;;;6.30;;
10074;SDS011;5076;42.680;23.288;2022-10-16T04:26:32;10.77;;;5.97;;
10074;SDS011;5076;42.680;23.288;2022-10-16T04:28:59;7.67;;;5.83;;
10074;SDS011;5076;42.680;23.288;2022-10-16T04:31:25;7.63;;;6.00;;
10074;SDS011;5076;42.680;23.288;2022-10-16T04:33:52;10.23;;;6.20;;
10074;SDS011;5076;42.680;23.288;2022-10-16T04:36:19;6.43;;;5.70;;
10074;SDS011;5076;42.680;23.288;2022-10-16T04:38:46;9.13;;;6.80;;
10074;SDS011;5076;42.680;23.288;2022-10-16T04:41:12;10.13;;;6.33;;
10074;SDS011;5076;42.680;23.288;2022-10-16T04:43:39;9.47;;;5.97;;
10074;SDS011;5076;42.680;23.288;2022-10-16T04:46:05;12.67;;;7.10;;
10074;SDS011;5076;42.680;23.288;2022-10-16T04:48:32;11.27;;;7.40;;
10074;SDS011;5076;42.680;23.288;2022-10-16T04:50:58;12.90;;;7.07;;
10074;SDS011;5076;42.680;23.288;2022-10-16T04:53:26;9.67;;;7.43;;
10074;SDS011;5076;42.680;23.288;2022-10-16T04:55:53;12.90;;;7.37;;
10074;SDS011;5076;42.680;23.288;2022-10-16T04:58:20;11.23;;;6.97;;
10074;SDS011;5076;42.680;23.288;2022-10-16T05:00:46;13.30;;;7.13;;
10074;SDS011;5076;42.680;23.288;2022-10-16T05:03:13;15.57;;;7.60;;
10074;SDS011;5076;42.680;23.288;2022-10-16T05:05:42;13.93;;;7.63;;
10074;SDS011;5076;42.680;23.288;2022-10-16T05:08:08;14.10;;;7.87;;
10074;SDS011;5076;42.680;23.288;2022-10-16T05:10:36;13.17;;;7.87;;
10074;SDS011;5076;42.680;23.288;2022-10-16T05:13:03;16.27;;;8.30;;
10074;SDS011;5076;42.680;23.288;2022-10-16T05:15:29;9.90;;;7.50;;
10074;SDS011;5076;42.680;23.288;2022-10-16T05:17:56;13.03;;;8.80;;
10074;SDS011;5076;42.680;23.288;2022-10-16T05:20:22;11.97;;;10.27;;
10074;SDS011;5076;42.680;23.288;2022-10-16T05:22:49;10.20;;;8.00;;
10074;SDS011;5076;42.680;23.288;2022-10-16T05:25:16;15.93;;;8.30;;
10074;SDS011;5076;42.680;23.288;2022-10-16T05:27:46;15.37;;;8.87;;
10074;SDS011;5076;42.680;23.288;2022-10-16T05:30:13;11.07;;;8.83;;
10074;SDS011;5076;42.680;23.288;2022-10-16T05:32:39;13.80;;;8.73;;
10074;SDS011;5076;42.680;23.288;2022-10-16T05:35:06;16.37;;;9.00;;
10074;SDS011;5076;42.680;23.288;2022-10-16T05:37:33;11.30;;;8.50;;
10074;SDS011;5076;42.680;23.288;2022-10-16T05:39:59;10.87;;;9.10;;
10074;SDS011;5076;42.680;23.288;2022-10-16T05:42:26;9.97;;;8.23;;
10074;SDS011;5076;42.680;23.288;2022-10-16T05:44:54;9.63;;;7.90;;
10074;SDS011;5076;42.680;23.288;2022-10-16T05:47:20;9.43;;;8.00;;
10074;SDS011;5076;42.680;23.288;2022-10-16T05:49:47;11.80;;;8.23;;
10074;SDS011;5076;42.680;23.288;2022-10-16T05:52:13;12.27;;;8.50;;
10074;SDS011;5076;42.680;23.288;2022-10-16T05:54:40;9.37;;;8.47;;
10074;SDS011;5076;42.680;23.288;2022-10-16T05:57:06;9.70;;;8.70;;
10074;SDS011;5076;42.680;23.288;2022-10-16T05:59:33;9.20;;;8.10;;
10074;SDS011;5076;42.680;23.288;2022-10-16T06:02:01;11.67;;;7.63;;
10074;SDS011;5076;42.680;23.288;2022-10-16T06:04:27;12.33;;;8.73;;
10074;SDS011;5076;42.680;23.288;2022-10-16T06:06:54;12.17;;;8.77;;
10074;SDS011;5076;42.680;23.288;2022-10-16T06:09:20;12.73;;;7.97;;
10074;SDS011;5076;42.680;23.288;2022-10-16T06:11:47;13.07;;;8.80;;
10074;SDS011;5076;42.680;23.288;2022-10-16T06:14:13;14.73;;;8.93;;
10074;SDS011;5076;42.680;23.288;2022-10-16T06:16:40;10.77;;;9.00;;
10074;SDS011;5076;42.680;23.288;2022-10-16T06:19:07;12.27;;;9.23;;
10074;SDS011;5076;42.680;23.288;2022-10-16T06:21:34;11.57;;;8.50;;
10074;SDS011;5076;42.680;23.288;2022-10-16T06:24:01;14.37;;;9.07;;
10074;SDS011;5076;42.680;23.288;2022-10-16T06:26:28;12.67;;;8.77;;
10074;SDS011;5076;42.680;23.288;2022-10-16T06:28:55;14.50;;;9.37;;
10074;SDS011;5076;42.680;23.288;2022-10-16T06:31:21;14.37;;;7.97;;
10074;SDS011;5076;42.680;23.288;2022-10-16T06:33:52;13.13;;;9.47;;
10074;SDS011;5076;42.680;23.288;2022-10-16T06:36:20;10.57;;;8.10;;
10074;SDS011;5076;42.680;23.288;2022-10-16T06:38:47;11.73;;;7.80;;
10074;SDS011;5076;42.680;23.288;2022-10-16T06:41:14;9.20;;;7.67;;
10074;SDS011;5076;42.680;23.288;2022-10-16T06:43:41;13.83;;;7.97;;
10074;SDS011;5076;42.680;23.288;2022-10-16T06:46:09;12.27;;;8.33;;
10074;SDS011;5076;42.680;23.288;2022-10-16T06:48:36;9.90;;;8.53;;
10074;SDS011;5076;42.680;23.288;2022-10-16T06:51:03;9.23;;;7.67;;
10074;SDS011;5076;42.680;23.288;2022-10-16T06:53:32;9.27;;;8.27;;
10074;SDS011;5076;42.680;23.288;2022-10-16T06:56:06;12.40;;;8.13;;
10074;SDS011;5076;42.680;23.288;2022-10-16T06:58:32;11.37;;;8.03;;
10074;SDS011;5076;42.680;23.288;2022-10-16T07:00:59;14.57;;;10.80;;
10074;SDS011;5076;42.680;23.288;2022-10-16T07:03:25;13.47;;;9.40;;
10074;SDS011;5076;42.680;23.288;2022-10-16T07:05:52;10.20;;;9.10;;
10074;SDS011;5076;42.680;23.288;2022-10-16T07:08:18;15.30;;;9.70;;
10074;SDS011;5076;42.680;23.288;2022-10-16T07:10:46;12.43;;;8.87;;
10074;SDS011;5076;42.680;23.288;2022-10-16T07:13:12;10.07;;;7.47;;
10074;SDS011;5076;42.680;23.288;2022-10-16T07:15:39;10.87;;;7.90;;
10074;SDS011;5076;42.680;23.288;2022-10-16T07:18:06;9.27;;;7.90;;
10074;SDS011;5076;42.680;23.288;2022-10-16T07:20:32;11.57;;;8.30;;
10074;SDS011;5076;42.680;23.288;2022-10-16T07:22:59;10.07;;;8.37;;
10074;SDS011;5076;42.680;23.288;2022-10-16T07:25:25;13.50;;;7.80;;
10074;SDS011;5076;42.680;23.288;2022-10-16T07:27:53;12.50;;;8.57;;
10074;SDS011;5076;42.680;23.288;2022-10-16T07:30:22;12.53;;;8.77;;
10074;SDS011;5076;42.680;23.288;2022-10-16T07:32:48;8.20;;;7.30;;
10074;SDS011;5076;42.680;23.288;2022-10-16T07:35:15;12.30;;;9.17;;
10074;SDS011;5076;42.680;23.288;2022-10-16T07:37:43;9.83;;;8.30;;
10074;SDS011;5076;42.680;23.288;2022-10-16T07:40:10;10.07;;;7.63;;
10074;SDS011;5076;42.680;23.288;2022-10-16T07:42:37;12.07;;;8.23;;
10074;SDS011;5076;42.680;23.288;2022-10-16T07:45:06;10.47;;;7.87;;
10074;SDS011;5076;42.680;23.288;2022-10-16T07:47:32;9.00;;;7.77;;
10074;SDS011;5076;42.680;23.288;2022-10-16T07:49:59;13.97;;;8.57;;
10074;SDS011;5076;42.680;23.288;2022-10-16T07:52:25;11.87;;;8.37;;
10074;SDS011;5076;42.680;23.288;2022-10-16T07:54:52;14.77;;;9.97;;
10074;SDS011;5076;42.680;23.288;2022-10-16T07:57:18;13.40;;;11.83;;
10074;SDS011;5076;42.680;23.288;2022-10-16T07:59:45;14.83;;;11.93;;
10074;SDS011;5076;42.680;23.288;2022-10-16T08:02:13;17.13;;;11.73;;
10074;SDS011;5076;42.680;23.288;2022-10-16T08:04:39;14.67;;;10.67;;
10074;SDS011;5076;42.680;23.288;2022-10-16T08:07:06;11.43;;;10.23;;
10074;SDS011;5076;42.680;23.288;2022-10-16T08:09:33;14.17;;;11.07;;
10074;SDS011;5076;42.680;23.288;2022-10-16T08:11:59;15.83;;;10.03;;
10074;SDS011;5076;42.680;23.288;2022-10-16T08:14:27;11.33;;;8.10;;
10074;SDS011;5076;42.680;23.288;2022-10-16T08:16:54;8.37;;;6.93;;
10074;SDS011;5076;42.680;23.288;2022-10-16T08:19:21;10.30;;;7.30;;
10074;SDS011;5076;42.680;23.288;2022-10-16T08:21:48;8.77;;;7.27;;
10074;SDS011;5076;42.680;23.288;2022-10-16T08:24:14;8.10;;;6.13;;
10074;SDS011;5076;42.680;23.288;2022-10-16T08:26:41;6.60;;;5.90;;
10074;SDS011;5076;42.680;23.288;2022-10-16T08:29:08;10.17;;;6.00;;
10074;SDS011;5076;42.680;23.288;2022-10-16T08:31:34;7.40;;;4.83;;
10074;SDS011;5076;42.680;23.288;2022-10-16T08:34:01;6.37;;;5.60;;
10074;SDS011;5076;42.680;23.288;2022-10-16T08:36:28;8.90;;;5.60;;
10074;SDS011;5076;42.680;23.288;2022-10-16T08:38:55;6.77;;;4.70;;
10074;SDS011;5076;42.680;23.288;2022-10-16T08:41:32;8.53;;;5.40;;
10074;SDS011;5076;42.680;23.288;2022-10-16T08:44:16;5.00;;;3.90;;
10074;SDS011;5076;42.680;23.288;2022-10-16T08:46:48;7.23;;;5.53;;
10074;SDS011;5076;42.680;23.288;2022-10-16T08:49:17;6.53;;;4.67;;
10074;SDS011;5076;42.680;23.288;2022-10-16T08:51:45;5.90;;;4.50;;
10074;SDS011;5076;42.680;23.288;2022-10-16T08:54:18;5.60;;;3.90;;
10074;SDS011;5076;42.680;23.288;2022-10-16T08:56:47;6.13;;;3.70;;
10074;SDS011;5076;42.680;23.288;2022-10-16T08:59:13;9.33;;;3.90;;
10074;SDS011;5076;42.680;23.288;2022-10-16T09:01:41;4.87;;;3.67;;
10074;SDS011;5076;42.680;23.288;2022-10-16T09:04:18;4.70;;;3.13;;
10074;SDS011;5076;42.680;23.288;2022-10-16T09:06:50;3.80;;;3.40;;
10074;SDS011;5076;42.680;23.288;2022-10-16T09:09:23;4.70;;;3.57;;
10074;SDS011;5076;42.680;23.288;2022-10-16T09:11:56;4.30;;;2.73;;
10074;SDS011;5076;42.680;23.288;2022-10-16T09:14:34;2.97;;;2.67;;
10074;SDS011;5076;42.680;23.288;2022-10-16T09:17:04;4.47;;;3.10;;
10074;SDS011;5076;42.680;23.288;2022-10-16T09:19:34;3.10;;;2.57;;
10074;SDS011;5076;42.680;23.288;2022-10-16T09:22:10;3.83;;;2.73;;
10074;SDS011;5076;42.680;23.288;2022-10-16T09:24:37;3.70;;;2.80;;
10074;SDS011;5076;42.680;23.288;2022-10-16T09:27:03;2.83;;;2.60;;
10074;SDS011;5076;42.680;23.288;2022-10-16T09:29:30;4.50;;;3.00;;
10074;SDS011;5076;42.680;23.288;2022-10-16T09:31:56;4.80;;;2.73;;
10074;SDS011;5076;42.680;23.288;2022-10-16T09:34:24;4.33;;;3.00;;
10074;SDS011;5076;42.680;23.288;2022-10-16T09:36:53;5.23;;;2.90;;
10074;SDS011;5076;42.680;23.288;2022-10-16T09:39:21;4.40;;;2.70;;
10074;SDS011;5076;42.680;23.288;2022-10-16T09:41:47;4.07;;;2.90;;
10074;SDS011;5076;42.680;23.288;2022-10-16T09:44:19;4.03;;;2.60;;
10074;SDS011;5076;42.680;23.288;2022-10-16T09:46:47;3.77;;;2.63;;
10074;SDS011;5076;42.680;23.288;2022-10-16T09:49:20;3.37;;;2.47;;
10074;SDS011;5076;42.680;23.288;2022-10-16T09:51:47;3.77;;;2.30;;
10074;SDS011;5076;42.680;23.288;2022-10-16T09:54:15;2.93;;;2.50;;
10074;SDS011;5076;42.680;23.288;2022-10-16T09:56:43;5.73;;;2.60;;
10074;SDS011;5076;42.680;23.288;2022-10-16T09:59:11;3.17;;;2.30;;
10074;SDS011;5076;42.680;23.288;2022-10-16T10:01:38;3.80;;;2.27;;
10074;SDS011;5076;42.680;23.288;2022-10-16T10:04:05;4.50;;;2.10;;
10074;SDS011;5076;42.680;23.288;2022-10-16T10:06:33;3.10;;;2.00;;
10074;SDS011;5076;42.680;23.288;2022-10-16T10:09:06;2.73;;;2.50;;
10074;SDS011;5076;42.680;23.288;2022-10-16T10:11:51;2.97;;;2.60;;
10074;SDS011;5076;42.680;23.288;2022-10-16T10:14:20;4.60;;;2.37;;
10074;SDS011;5076;42.680;23.288;2022-10-16T10:16:47;4.43;;;3.03;;
10074;SDS011;5076;42.680;23.288;2022-10-16T10:19:14;2.73;;;2.43;;
10074;SDS011;5076;42.680;23.288;2022-10-16T10:21:41;6.37;;;2.53;;
10074;SDS011;5076;42.680;23.288;2022-10-16T10:24:09;2.63;;;2.43;;
10074;SDS011;5076;42.680;23.288;2022-10-16T10:26:37;3.03;;;2.37;;
10074;SDS011;5076;42.680;23.288;2022-10-16T10:29:06;3.30;;;2.33;;
10074;SDS011;5076;42.680;23.288;2022-10-16T10:31:39;3.10;;;2.50;;
10074;SDS011;5076;42.680;23.288;2022-10-16T10:34:11;3.03;;;2.10;;
10074;SDS011;5076;42.680;23.288;2022-10-16T10:36:43;1.83;;;1.70;;
10074;SDS011;5076;42.680;23.288;2022-10-16T10:39:12;5.33;;;2.50;;
10074;SDS011;5076;42.680;23.288;2022-10-16T10:41:49;5.10;;;2.27;;
10074;SDS011;5076;42.680;23.288;2022-10-16T10:44:21;2.90;;;2.40;;
10074;SDS011;5076;42.680;23.288;2022-10-16T10:46:54;3.20;;;2.30;;
10074;SDS011;5076;42.680;23.288;2022-10-16T10:49:29;4.97;;;3.30;;
10074;SDS011;5076;42.680;23.288;2022-10-16T10:52:00;3.60;;;2.30;;
10074;SDS011;5076;42.680;23.288;2022-10-16T10:54:29;3.00;;;2.60;;
10074;SDS011;5076;42.680;23.288;2022-10-16T10:57:00;5.67;;;3.23;;
10074;SDS011;5076;42.680;23.288;2022-10-16T11:02:18;4.53;;;2.60;;
10074;SDS011;5076;42.680;23.288;2022-10-16T11:07:31;2.87;;;2.23;;
10074;SDS011;5076;42.680;23.288;2022-10-16T11:10:01;2.97;;;2.20;;
10074;SDS011;5076;42.680;23.288;2022-10-16T11:12:29;3.50;;;2.07;;
10074;SDS011;5076;42.680;23.288;2022-10-16T11:14:58;5.50;;;2.93;;
10074;SDS011;5076;42.680;23.288;2022-10-16T11:17:30;2.30;;;2.10;;
10074;SDS011;5076;42.680;23.288;2022-10-16T11:19:58;3.53;;;2.43;;
10074;SDS011;5076;42.680;23.288;2022-10-16T11:22:28;3.23;;;2.07;;
10074;SDS011;5076;42.680;23.288;2022-10-16T11:24:59;3.33;;;1.90;;
10074;SDS011;5076;42.680;23.288;2022-10-16T11:27:30;3.70;;;2.30;;
10074;SDS011;5076;42.680;23.288;2022-10-16T11:30:02;6.13;;;2.07;;
10074;SDS011;5076;42.680;23.288;2022-10-16T11:32:31;3.63;;;1.97;;
10074;SDS011;5076;42.680;23.288;2022-10-16T11:35:02;4.77;;;2.77;;
10074;SDS011;5076;42.680;23.288;2022-10-16T11:37:31;5.57;;;2.23;;
10074;SDS011;5076;42.680;23.288;2022-10-16T11:39:59;3.50;;;2.00;;
10074;SDS011;5076;42.680;23.288;2022-10-16T11:42:30;3.33;;;2.60;;
10074;SDS011;5076;42.680;23.288;2022-10-16T11:45:00;2.50;;;2.23;;
10074;SDS011;5076;42.680;23.288;2022-10-16T11:47:34;2.40;;;2.20;;
10074;SDS011;5076;42.680;23.288;2022-10-16T11:50:01;2.67;;;2.10;;
10074;SDS011;5076;42.680;23.288;2022-10-16T11:52:30;4.30;;;2.10;;
10074;SDS011;5076;42.680;23.288;2022-10-16T11:54:59;3.27;;;1.80;;
10074;SDS011;5076;42.680;23.288;2022-10-16T11:57:28;3.67;;;2.30;;
10074;SDS011;5076;42.680;23.288;2022-10-16T11:59:56;5.43;;;1.80;;
10074;SDS011;5076;42.680;23.288;2022-10-16T12:02:30;3.13;;;2.27;;
10074;SDS011;5076;42.680;23.288;2022-10-16T12:05:03;2.00;;;1.80;;
10074;SDS011;5076;42.680;23.288;2022-10-16T12:07:32;2.33;;;1.90;;
10074;SDS011;5076;42.680;23.288;2022-10-16T12:10:09;5.73;;;2.13;;
10074;SDS011;5076;42.680;23.288;2022-10-16T12:12:37;2.83;;;2.10;;
10074;SDS011;5076;42.680;23.288;2022-10-16T12:15:18;3.17;;;2.00;;
10074;SDS011;5076;42.680;23.288;2022-10-16T12:17:44;3.60;;;1.90;;
10074;SDS011;5076;42.680;23.288;2022-10-16T12:20:23;3.47;;;2.37;;
10074;SDS011;5076;42.680;23.288;2022-10-16T12:22:52;6.20;;;2.40;;
10074;SDS011;5076;42.680;23.288;2022-10-16T12:25:21;5.13;;;2.60;;
10074;SDS011;5076;42.680;23.288;2022-10-16T12:27:53;2.80;;;2.20;;
10074;SDS011;5076;42.680;23.288;2022-10-16T12:30:22;3.77;;;2.20;;
10074;SDS011;5076;42.680;23.288;2022-10-16T12:32:52;2.47;;;2.20;;
10074;SDS011;5076;42.680;23.288;2022-10-16T12:35:20;2.60;;;1.93;;
10074;SDS011;5076;42.680;23.288;2022-10-16T12:37:49;5.63;;;2.20;;
10074;SDS011;5076;42.680;23.288;2022-10-16T12:40:23;2.73;;;2.20;;
10074;SDS011;5076;42.680;23.288;2022-10-16T12:42:51;3.00;;;2.00;;
10074;SDS011;5076;42.680;23.288;2022-10-16T12:45:25;5.00;;;1.90;;
10074;SDS011;5076;42.680;23.288;2022-10-16T12:47:53;6.80;;;3.03;;
10074;SDS011;5076;42.680;23.288;2022-10-16T12:50:24;5.03;;;2.37;;
10074;SDS011;5076;42.680;23.288;2022-10-16T12:52:53;4.77;;;2.77;;
10074;SDS011;5076;42.680;23.288;2022-10-16T12:55:20;3.80;;;2.40;;
10074;SDS011;5076;42.680;23.288;2022-10-16T12:57:56;2.50;;;2.30;;
10074;SDS011;5076;42.680;23.288;2022-10-16T13:00:25;3.33;;;2.27;;
10074;SDS011;5076;42.680;23.288;2022-10-16T13:02:58;2.30;;;2.00;;
10074;SDS011;5076;42.680;23.288;2022-10-16T13:05:32;3.43;;;2.10;;
10074;SDS011;5076;42.680;23.288;2022-10-16T13:08:06;4.10;;;2.40;;
10074;SDS011;5076;42.680;23.288;2022-10-16T13:10:39;4.40;;;2.40;;
10074;SDS011;5076;42.680;23.288;2022-10-16T13:13:22;4.57;;;2.30;;
10074;SDS011;5076;42.680;23.288;2022-10-16T13:15:56;5.07;;;2.67;;
10074;SDS011;5076;42.680;23.288;2022-10-16T13:18:26;7.93;;;2.90;;
10074;SDS011;5076;42.680;23.288;2022-10-16T13:20:56;5.60;;;2.60;;
10074;SDS011;5076;42.680;23.288;2022-10-16T13:23:28;4.13;;;2.37;;
10074;SDS011;5076;42.680;23.288;2022-10-16T13:26:01;2.73;;;2.00;;
10074;SDS011;5076;42.680;23.288;2022-10-16T13:28:31;2.80;;;2.40;;
10074;SDS011;5076;42.680;23.288;2022-10-16T13:30:58;3.03;;;2.13;;
10074;SDS011;5076;42.680;23.288;2022-10-16T13:33:27;6.23;;;2.27;;
10074;SDS011;5076;42.680;23.288;2022-10-16T13:35:57;3.80;;;1.57;;
10074;SDS011;5076;42.680;23.288;2022-10-16T13:38:24;3.30;;;2.00;;
10074;SDS011;5076;42.680;23.288;2022-10-16T13:40:54;4.93;;;2.70;;
10074;SDS011;5076;42.680;23.288;2022-10-16T13:43:22;3.17;;;1.90;;
10074;SDS011;5076;42.680;23.288;2022-10-16T13:45:56;2.57;;;2.03;;
10074;SDS011;5076;42.680;23.288;2022-10-16T13:48:23;2.83;;;2.07;;
10074;SDS011;5076;42.680;23.288;2022-10-16T13:51:00;2.20;;;1.70;;
10074;SDS011;5076;42.680;23.288;2022-10-16T13:53:26;7.80;;;2.20;;
10074;SDS011;5076;42.680;23.288;2022-10-16T13:55:54;4.07;;;1.97;;
10074;SDS011;5076;42.680;23.288;2022-10-16T13:58:21;3.73;;;2.33;;
10074;SDS011;5076;42.680;23.288;2022-10-16T14:00:55;6.40;;;2.10;;
10074;SDS011;5076;42.680;23.288;2022-10-16T14:03:22;2.00;;;1.63;;
10074;SDS011;5076;42.680;23.288;2022-10-16T14:05:50;3.37;;;2.23;;
10074;SDS011;5076;42.680;23.288;2022-10-16T14:08:17;2.70;;;1.60;;
10074;SDS011;5076;42.680;23.288;2022-10-16T14:10:47;4.50;;;1.97;;
10074;SDS011;5076;42.680;23.288;2022-10-16T14:13:16;2.20;;;1.70;;
10074;SDS011;5076;42.680;23.288;2022-10-16T14:15:45;1.73;;;1.50;;
10074;SDS011;5076;42.680;23.288;2022-10-16T14:18:15;2.00;;;1.50;;
10074;SDS011;5076;42.680;23.288;2022-10-16T14:20:44;4.03;;;1.80;;
10074;SDS011;5076;42.680;23.288;2022-10-16T14:23:19;2.30;;;1.97;;
10074;SDS011;5076;42.680;23.288;2022-10-16T14:25:46;3.17;;;1.97;;
10074;SDS011;5076;42.680;23.288;2022-10-16T14:28:16;2.63;;;1.80;;
10074;SDS011;5076;42.680;23.288;2022-10-16T14:30:49;4.13;;;2.03;;
10074;SDS011;5076;42.680;23.288;2022-10-16T14:33:23;2.30;;;1.80;;
10074;SDS011;5076;42.680;23.288;2022-10-16T14:36:00;3.80;;;1.90;;
10074;SDS011;5076;42.680;23.288;2022-10-16T14:38:27;4.33;;;2.20;;
10074;SDS011;5076;42.680;23.288;2022-10-16T14:40:54;4.40;;;2.30;;
10074;SDS011;5076;42.680;23.288;2022-10-16T14:43:26;4.37;;;2.23;;
10074;SDS011;5076;42.680;23.288;2022-10-16T14:45:54;8.87;;;1.83;;
10074;SDS011;5076;42.680;23.288;2022-10-16T14:48:21;4.03;;;1.80;;
10074;SDS011;5076;42.680;23.288;2022-10-16T14:50:48;5.73;;;2.30;;
10074;SDS011;5076;42.680;23.288;2022-10-16T14:53:15;4.23;;;2.37;;
10074;SDS011;5076;42.680;23.288;2022-10-16T14:55:41;4.87;;;2.23;;